Time;durP1;ratioP1;P1;durP2;ratioP2;P2;SDS_P1;SDS_P2;PMS_P1;PMS_P2;Temp;Humidity;BMP_temperature;BMP_pressure;BME280_temperature;BME280_humidity;BME280_pressure;Samples;Min_cycle;Max_cycle;Signal;HPM_P1;HPM_P2
2022/06/22 00:01:27;;;;;;;4.10;1.60;;;;;;;25.06;42.23;99766.56;5030833;28;20402;-72
2022/06/22 00:03:56;;;;;;;3.80;1.58;;;;;;;25.04;42.23;99749.50;5031676;28;20391;-72
2022/06/22 00:06:31;;;;;;;4.63;1.52;;;;;;;25.09;42.18;99735.34;5030686;28;20423;-72
2022/06/22 00:08:56;;;;;;;2.72;1.48;;;;;;;25.06;41.97;99736.06;5030428;28;20411;-72
2022/06/22 00:11:23;;;;;;;3.78;1.55;;;;;;;25.04;41.82;99741.19;5031118;28;20453;-72
2022/06/22 00:13:51;;;;;;;2.38;1.40;;;;;;;25.01;41.77;99741.09;5031678;28;20403;-72
2022/06/22 00:16:22;;;;;;;3.38;1.25;;;;;;;25.03;41.09;99744.28;5031358;28;20469;-72
2022/06/22 00:18:49;;;;;;;1.60;1.50;;;;;;;24.96;41.02;99742.16;5025089;28;20483;-72
2022/06/22 00:21:40;;;;;;;3.70;1.23;;;;;;;24.89;41.42;99735.66;5031022;28;20403;-72
2022/06/22 00:24:23;;;;;;;5.70;1.60;;;;;;;24.90;40.91;99724.19;5031134;28;20492;-72
2022/06/22 00:27:07;;;;;;;2.42;1.50;;;;;;;24.87;41.08;99719.38;5017327;28;20434;-72
2022/06/22 00:29:35;;;;;;;2.63;1.20;;;;;;;24.92;41.31;99724.66;5030709;28;20399;-72
2022/06/22 00:32:17;;;;;;;2.80;1.60;;;;;;;24.94;41.45;99719.53;5031121;28;20509;-72
2022/06/22 00:34:42;;;;;;;3.33;1.48;;;;;;;24.89;40.65;99713.47;5031224;28;20406;-72
2022/06/22 00:37:19;;;;;;;1.60;1.43;;;;;;;24.90;41.24;99704.78;5030419;28;20391;-72
2022/06/22 00:39:50;;;;;;;3.03;1.57;;;;;;;24.84;40.40;99714.53;5030609;28;20402;-72
2022/06/22 00:42:29;;;;;;;1.63;1.50;;;;;;;24.75;39.96;99709.16;5030018;28;20399;-72
2022/06/22 00:45:03;;;;;;;4.28;1.50;;;;;;;24.71;40.60;99705.47;5030255;28;20489;-72
2022/06/22 00:47:34;;;;;;;4.00;1.85;;;;;;;24.64;40.52;99694.22;5025510;28;20421;-72
2022/06/22 00:50:13;;;;;;;5.78;1.60;;;;;;;24.64;41.09;99693.41;5029799;28;20447;-72
2022/06/22 00:52:46;;;;;;;1.88;1.52;;;;;;;24.64;40.79;99696.16;5031166;28;20399;-72
2022/06/22 00:55:42;;;;;;;1.88;1.38;;;;;;;24.56;40.90;99692.44;5024164;28;20448;-72
2022/06/22 00:58:07;;;;;;;6.20;1.90;;;;;;;24.63;41.03;99709.22;5002847;28;20419;-72
2022/06/22 01:00:37;;;;;;;4.20;1.27;;;;;;;24.64;40.54;99719.16;5029285;28;20825;-72
2022/06/22 01:03:25;;;;;;;2.63;1.35;;;;;;;24.66;40.46;99736.25;5034816;28;20878;-72
2022/06/22 01:06:14;;;;;;;2.78;1.67;;;;;;;24.55;40.75;99742.63;5033629;28;20430;-72
2022/06/22 01:08:39;;;;;;;2.25;1.65;;;;;;;24.38;41.63;99741.00;5026717;28;20470;-72
2022/06/22 01:14:26;;;;;;;1.40;1.33;;;;;;;24.50;40.49;99751.22;5031022;28;20430;-72
2022/06/22 01:16:56;;;;;;;3.72;1.70;;;;;;;24.44;41.01;99753.44;5034501;28;20747;-72
2022/06/22 01:19:48;;;;;;;2.72;1.58;;;;;;;24.31;41.36;99773.22;5028021;28;20407;-72
2022/06/22 01:22:23;;;;;;;1.83;1.63;;;;;;;24.31;41.15;99795.38;4988839;28;20845;-72
2022/06/22 01:25:19;;;;;;;4.80;1.67;;;;;;;24.23;41.47;99809.03;5034483;28;20402;-72
2022/06/22 01:27:45;;;;;;;3.53;1.60;;;;;;;24.13;41.88;99815.06;5033574;28;20407;-72
2022/06/22 01:30:31;;;;;;;1.80;1.20;;;;;;;24.18;41.25;99802.91;5024980;28;20411;-72
2022/06/22 01:32:57;;;;;;;3.90;1.10;;;;;;;24.22;41.11;99779.72;5033291;28;20487;-72
2022/06/22 01:35:26;;;;;;;1.85;1.38;;;;;;;24.25;41.53;99764.38;5032860;28;20419;-72
2022/06/22 01:37:52;;;;;;;2.08;1.10;;;;;;;24.25;42.20;99767.13;5032202;28;20485;-72
2022/06/22 01:40:24;;;;;;;3.45;1.10;;;;;;;24.23;42.54;99759.19;5032950;28;20414;-72
2022/06/22 01:42:56;;;;;;;1.42;1.33;;;;;;;24.19;42.98;99746.41;5031065;28;20419;-72
2022/06/22 01:46:00;;;;;;;1.90;1.15;;;;;;;24.06;42.95;99750.34;5034090;28;20414;-72
2022/06/22 01:48:39;;;;;;;1.45;0.95;;;;;;;24.10;42.13;99748.50;4989957;28;20913;-72
2022/06/22 01:51:19;;;;;;;3.33;1.20;;;;;;;24.11;41.58;99739.00;5017006;28;20411;-72
2022/06/22 01:53:49;;;;;;;1.30;1.20;;;;;;;24.12;41.89;99744.22;5033210;28;20740;-72
2022/06/22 01:56:34;;;;;;;4.40;1.17;;;;;;;24.00;41.92;99737.91;5033821;28;20429;-72
2022/06/22 01:59:07;;;;;;;2.20;1.30;;;;;;;23.98;42.22;99731.91;5024385;28;20403;-72
2022/06/22 02:01:41;;;;;;;2.95;1.35;;;;;;;23.94;41.94;99722.72;5029352;28;20422;-72
2022/06/22 02:04:38;;;;;;;2.65;1.33;;;;;;;23.87;42.09;99712.25;5031807;28;20841;-72
2022/06/22 02:10:20;;;;;;;2.30;1.50;;;;;;;23.93;41.70;99705.31;5033760;28;20390;-72
2022/06/22 02:12:54;;;;;;;1.33;1.23;;;;;;;23.83;41.58;99689.19;5030077;28;20890;-72
2022/06/22 02:15:44;;;;;;;1.95;1.10;;;;;;;23.66;41.91;99689.47;5025894;28;20414;-72
2022/06/22 02:18:16;;;;;;;2.90;1.50;;;;;;;23.58;42.27;99690.41;5012602;28;20924;-72
2022/06/22 02:20:42;;;;;;;1.52;1.20;;;;;;;23.51;42.54;99682.69;5000954;28;20989;-72
2022/06/22 02:23:15;;;;;;;1.27;1.20;;;;;;;23.55;42.66;99686.38;5031177;28;20502;-72
2022/06/22 02:25:48;;;;;;;2.60;1.30;;;;;;;23.57;42.79;99686.06;5033434;28;20851;-72
2022/06/22 02:28:13;;;;;;;2.13;1.20;;;;;;;23.52;42.96;99683.50;5018476;28;20443;-72
2022/06/22 02:30:41;;;;;;;2.63;1.17;;;;;;;23.48;43.40;99677.09;5033254;28;20878;-72
2022/06/22 02:33:07;;;;;;;3.90;1.40;;;;;;;23.46;43.64;99679.38;5025766;28;20522;-72
2022/06/22 02:35:34;;;;;;;3.25;1.45;;;;;;;23.45;42.96;99667.50;5025289;28;20419;-72
2022/06/22 02:38:05;;;;;;;2.03;1.38;;;;;;;23.44;42.49;99674.22;5030541;28;20490;-72
2022/06/22 02:44:29;;;;;;;1.73;0.93;;;;;;;23.44;42.14;99696.34;5033099;28;20431;-72
2022/06/22 02:46:11;;;;;;;1.33;0.87;;;;;;;23.39;41.71;99710.34;5030932;28;20906;-72
2022/06/22 02:48:39;;;;;;;2.25;1.02;;;;;;;23.43;41.75;99707.72;5029132;28;20407;-72
2022/06/22 02:51:24;;;;;;;0.85;0.85;;;;;;;23.40;41.68;99706.47;5024629;28;20403;-72
2022/06/22 02:53:51;;;;;;;1.75;1.40;;;;;;;23.36;41.70;99702.75;5019552;28;20489;-71
2022/06/22 02:56:22;;;;;;;3.58;0.98;;;;;;;23.42;41.88;99700.59;5031461;28;20411;-72
2022/06/22 02:58:49;;;;;;;1.40;1.10;;;;;;;23.44;41.76;99701.06;5031407;28;20883;-72
2022/06/22 03:01:21;;;;;;;2.37;1.07;;;;;;;23.44;41.88;99706.59;5032643;28;20414;-72
2022/06/22 03:04:02;;;;;;;1.80;1.05;;;;;;;23.38;42.01;99705.97;5014223;28;20418;-72
2022/06/22 03:06:33;;;;;;;7.93;1.30;;;;;;;23.41;41.83;99707.28;5029420;28;20744;-72
2022/06/22 03:09:02;;;;;;;4.75;1.10;;;;;;;23.39;41.85;99707.59;5031424;28;20411;-72
2022/06/22 03:11:28;;;;;;;5.07;1.30;;;;;;;23.32;42.21;99717.63;5032131;28;20409;-72
2022/06/22 03:14:09;;;;;;;2.10;1.40;;;;;;;23.21;42.60;99717.31;5029024;28;20937;-72
2022/06/22 03:16:40;;;;;;;1.52;1.15;;;;;;;23.14;43.26;99725.38;5023920;28;20473;-72
2022/06/22 03:19:11;;;;;;;1.60;1.10;;;;;;;23.16;43.43;99725.81;5028718;28;20414;-72
2022/06/22 03:21:38;;;;;;;3.97;1.60;;;;;;;23.22;43.16;99738.25;5021333;28;20507;-72
2022/06/22 03:24:30;;;;;;;5.68;1.60;;;;;;;23.35;42.72;99741.84;5014085;28;20399;-73
2022/06/22 03:27:02;;;;;;;1.85;1.55;;;;;;;23.33;42.84;99739.41;5032125;28;20866;-72
2022/06/22 03:29:37;;;;;;;2.17;1.45;;;;;;;23.24;43.44;99745.06;5031472;28;20404;-72
2022/06/22 03:32:13;;;;;;;2.50;1.20;;;;;;;23.12;43.69;99756.09;5032180;28;20440;-72
2022/06/22 03:34:47;;;;;;;2.05;1.30;;;;;;;23.03;44.21;99744.34;5031515;28;20402;-72
2022/06/22 03:37:24;;;;;;;1.73;1.27;;;;;;;22.99;44.74;99743.44;5031307;28;20399;-72
2022/06/22 03:39:56;;;;;;;1.90;1.50;;;;;;;23.07;44.61;99738.94;5032010;28;20398;-72
2022/06/22 03:42:28;;;;;;;1.58;1.48;;;;;;;23.08;44.45;99735.84;5031988;28;20396;-72
2022/06/22 03:45:10;;;;;;;3.08;1.45;;;;;;;23.12;44.16;99719.34;5031642;28;20448;-72
2022/06/22 03:47:48;;;;;;;1.65;1.50;;;;;;;23.10;44.06;99719.72;5030900;28;20396;-72
2022/06/22 03:50:51;;;;;;;3.83;1.38;;;;;;;23.11;43.91;99739.88;5025039;28;20400;-71
2022/06/22 03:53:51;;;;;;;2.63;1.70;;;;;;;23.13;43.87;99743.91;5019280;28;20505;-72
2022/06/22 03:56:21;;;;;;;2.78;1.80;;;;;;;23.15;43.85;99738.81;5030999;28;20487;-72
2022/06/22 03:58:50;;;;;;;1.67;1.20;;;;;;;23.16;44.05;99745.97;5031594;28;20403;-72
2022/06/22 04:01:17;;;;;;;2.05;1.50;;;;;;;23.11;44.35;99760.03;5031721;28;20470;-72
2022/06/22 04:03:43;;;;;;;1.80;1.50;;;;;;;22.98;44.90;99758.41;5031686;28;20418;-72
2022/06/22 04:06:21;;;;;;;1.47;1.17;;;;;;;22.92;45.34;99751.47;5030010;28;20459;-72
2022/06/22 04:08:46;;;;;;;4.82;1.42;;;;;;;22.94;45.27;99748.38;5013968;28;20414;-72
2022/06/22 04:11:30;;;;;;;2.70;1.30;;;;;;;22.99;45.23;99759.19;5031118;28;20455;-72
2022/06/22 04:14:03;;;;;;;1.48;1.30;;;;;;;22.91;45.28;99762.88;5031497;28;20479;-72
2022/06/22 04:16:42;;;;;;;1.73;1.23;;;;;;;22.86;45.36;99760.34;5030667;28;20419;-72
2022/06/22 04:19:17;;;;;;;2.08;1.52;;;;;;;22.84;45.31;99752.41;5029754;28;20406;-72
2022/06/22 04:21:48;;;;;;;1.77;1.20;;;;;;;22.87;45.25;99751.72;5031512;28;20746;-72
2022/06/22 04:24:24;;;;;;;1.50;1.40;;;;;;;22.83;45.05;99755.50;5031349;28;20426;-72
2022/06/22 04:27:07;;;;;;;3.28;1.27;;;;;;;22.78;45.38;99748.25;5031113;28;20418;-72
2022/06/22 04:29:39;;;;;;;1.58;1.48;;;;;;;22.84;45.18;99744.13;5030947;28;20421;-72
2022/06/22 04:32:14;;;;;;;2.00;1.38;;;;;;;22.78;45.22;99745.50;5027952;28;20501;-72
2022/06/22 04:34:45;;;;;;;1.58;1.48;;;;;;;22.81;45.00;99747.56;5030880;28;20402;-72
2022/06/22 04:37:31;;;;;;;3.03;1.17;;;;;;;22.82;45.16;99749.16;5033688;28;20596;-72
2022/06/22 04:40:24;;;;;;;1.45;1.35;;;;;;;22.81;45.21;99750.31;5032852;28;20549;-72
2022/06/22 04:42:55;;;;;;;2.33;1.50;;;;;;;22.84;45.09;99755.16;5034960;28;20466;-72
2022/06/22 04:45:26;;;;;;;2.17;1.30;;;;;;;22.82;45.15;99751.91;5034750;28;20407;-71
2022/06/22 04:47:51;;;;;;;1.50;1.40;;;;;;;22.89;44.95;99746.63;5026412;28;20440;-72
2022/06/22 04:50:17;;;;;;;1.70;1.47;;;;;;;22.95;44.78;99753.56;5027133;28;20693;-72
2022/06/22 04:52:47;;;;;;;1.10;1.10;;;;;;;22.93;45.24;99752.28;5031166;28;20454;-71
2022/06/22 04:55:17;;;;;;;1.40;1.20;;;;;;;22.90;45.29;99753.78;5033023;28;20457;-71
2022/06/22 04:57:47;;;;;;;2.22;1.25;;;;;;;22.90;45.14;99755.75;5017251;28;20453;-71
2022/06/22 05:00:19;;;;;;;3.88;1.50;;;;;;;22.94;45.14;99753.91;5017034;28;20399;-71
2022/06/22 05:02:47;;;;;;;2.20;1.30;;;;;;;22.95;44.80;99750.00;5033935;28;20913;-72
2022/06/22 05:05:27;;;;;;;1.40;1.00;;;;;;;22.98;44.65;99755.66;5032515;28;20422;-71
2022/06/22 05:08:04;;;;;;;1.67;1.58;;;;;;;23.00;44.93;99752.53;5033843;28;20924;-72
2022/06/22 05:10:47;;;;;;;4.80;1.57;;;;;;;22.98;44.72;99765.91;5034787;28;20795;-73
2022/06/22 05:13:23;;;;;;;4.20;1.20;;;;;;;23.00;44.33;99786.50;5032991;28;20457;-73
2022/06/22 05:15:54;;;;;;;2.30;1.50;;;;;;;23.00;44.28;99807.78;5002243;28;20502;-72
2022/06/22 05:18:33;;;;;;;1.83;1.38;;;;;;;22.85;44.34;99817.56;5032883;28;20965;-72
2022/06/22 05:21:11;;;;;;;3.10;1.35;;;;;;;22.89;44.60;99824.00;5028487;28;20928;-72
2022/06/22 05:23:40;;;;;;;1.70;1.20;;;;;;;22.85;44.75;99819.53;5031111;28;20407;-72
2022/06/22 05:26:08;;;;;;;2.90;1.80;;;;;;;22.93;44.96;99826.88;5032301;28;20452;-73
2022/06/22 05:28:44;;;;;;;1.30;1.20;;;;;;;22.83;45.80;99830.91;5016910;28;20387;-72
2022/06/22 05:31:22;;;;;;;2.40;1.60;;;;;;;22.79;45.74;99840.22;5032038;28;20453;-73
2022/06/22 05:33:52;;;;;;;1.80;1.40;;;;;;;22.77;46.00;99845.28;5027619;28;20417;-72
2022/06/22 05:36:22;;;;;;;1.50;1.27;;;;;;;22.84;45.82;99838.03;5032477;28;20486;-73
2022/06/22 05:38:52;;;;;;;3.90;1.40;;;;;;;22.91;45.89;99832.78;5024029;28;20502;-73
2022/06/22 05:41:22;;;;;;;2.15;1.70;;;;;;;22.83;45.69;99825.38;5026090;28;20422;-73
2022/06/22 05:43:48;;;;;;;2.25;1.30;;;;;;;22.89;45.82;99832.28;5033067;28;20795;-74
2022/06/22 05:46:15;;;;;;;7.97;1.80;;;;;;;22.92;45.67;99837.13;5031610;28;20398;-73
2022/06/22 05:48:43;;;;;;;1.88;1.23;;;;;;;23.00;45.35;99843.72;5015677;28;20445;-73
2022/06/22 05:51:36;;;;;;;2.25;1.88;;;;;;;23.06;45.21;99839.59;5005594;28;20482;-73
2022/06/22 05:54:19;;;;;;;4.00;1.60;;;;;;;23.06;44.93;99843.16;5032229;28;20402;-73
2022/06/22 05:56:59;;;;;;;2.57;1.30;;;;;;;23.10;45.09;99835.81;5032082;28;20431;-73
2022/06/22 05:59:45;;;;;;;1.77;1.67;;;;;;;23.18;44.78;99839.63;5032692;28;20407;-73
2022/06/22 06:02:21;;;;;;;3.45;1.98;;;;;;;23.17;44.63;99830.53;5033536;28;20438;-73
2022/06/22 06:04:55;;;;;;;2.25;1.50;;;;;;;23.20;44.92;99829.81;5030028;28;20937;-73
2022/06/22 06:07:32;;;;;;;3.75;1.50;;;;;;;23.11;44.68;99834.66;5033112;28;20481;-73
2022/06/22 06:09:58;;;;;;;2.50;1.67;;;;;;;23.08;45.18;99838.13;5033181;28;20411;-73
2022/06/22 06:12:36;;;;;;;1.80;1.40;;;;;;;23.02;44.88;99833.16;5033361;28;20490;-73
2022/06/22 06:15:04;;;;;;;2.08;1.30;;;;;;;23.03;45.01;99837.50;5031829;28;20410;-73
2022/06/22 06:17:43;;;;;;;2.10;1.35;;;;;;;23.04;45.09;99833.59;5031933;28;21046;-73
2022/06/22 06:20:20;;;;;;;2.17;1.30;;;;;;;22.95;45.35;99841.19;5032253;28;20485;-73
2022/06/22 06:22:46;;;;;;;4.60;1.90;;;;;;;23.03;45.64;99834.75;5033168;28;20397;-73
2022/06/22 06:28:09;;;;;;;2.17;1.42;;;;;;;23.11;45.41;99826.38;5029400;28;20762;-73
2022/06/22 06:30:43;;;;;;;1.75;1.50;;;;;;;23.19;46.21;99814.38;5030703;28;20482;-73
2022/06/22 06:33:32;;;;;;;2.40;1.50;;;;;;;23.24;46.64;99810.59;5030954;28;20782;-73
2022/06/22 06:36:05;;;;;;;2.83;1.70;;;;;;;23.27;47.57;99807.13;5028485;28;20512;-73
2022/06/22 06:38:40;;;;;;;2.25;1.70;;;;;;;23.30;47.84;99806.44;5026791;28;20459;-73
2022/06/22 06:41:14;;;;;;;4.33;1.87;;;;;;;23.32;48.38;99809.66;5035431;28;20486;-73
2022/06/22 06:44:08;;;;;;;4.13;1.42;;;;;;;23.36;48.32;99810.59;5020947;28;20401;-73
2022/06/22 06:46:40;;;;;;;4.85;3.00;;;;;;;23.38;49.62;99801.97;5018458;28;20419;-73
2022/06/22 06:49:17;;;;;;;4.07;3.80;;;;;;;23.31;51.13;99818.31;5031686;28;20525;-73
2022/06/22 06:51:51;;;;;;;3.78;2.10;;;;;;;23.31;50.59;99812.78;5030584;28;20403;-73
2022/06/22 06:54:25;;;;;;;4.30;1.90;;;;;;;23.38;49.92;99813.81;5030775;28;20754;-73
2022/06/22 06:56:57;;;;;;;2.63;2.00;;;;;;;23.35;50.94;99816.50;5027942;28;20430;-73
2022/06/22 06:59:27;;;;;;;3.28;1.88;;;;;;;23.38;50.89;99819.34;5030134;28;20423;-73
2022/06/22 07:01:52;;;;;;;3.83;1.83;;;;;;;23.46;50.41;99820.41;5029580;28;20469;-73
2022/06/22 07:04:29;;;;;;;1.73;1.60;;;;;;;23.41;51.39;99817.91;5025820;28;20569;-73
2022/06/22 07:07:17;;;;;;;3.10;1.73;;;;;;;23.32;50.74;99822.69;5030770;28;20423;-73
2022/06/22 07:09:44;;;;;;;3.65;2.47;;;;;;;23.25;50.49;99824.06;5028597;28;20489;-73
2022/06/22 07:12:23;;;;;;;2.08;1.63;;;;;;;23.24;50.78;99822.47;5029081;28;20403;-73
2022/06/22 07:14:48;;;;;;;3.60;1.80;;;;;;;23.22;50.67;99824.75;5029902;28;20394;-73
2022/06/22 07:17:18;;;;;;;2.97;1.50;;;;;;;23.17;50.41;99813.13;5029883;28;21029;-73
2022/06/22 07:19:55;;;;;;;3.17;1.85;;;;;;;23.14;50.49;99811.84;5031757;28;20390;-73
2022/06/22 07:22:31;;;;;;;3.20;1.90;;;;;;;23.10;51.06;99808.16;5010490;28;20438;-73
2022/06/22 07:25:11;;;;;;;3.70;1.50;;;;;;;23.07;50.47;99811.63;5031428;28;20399;-73
2022/06/22 07:27:49;;;;;;;3.38;1.77;;;;;;;23.10;50.34;99808.16;5026001;28;20902;-73
2022/06/22 07:30:27;;;;;;;5.17;1.63;;;;;;;23.12;50.72;99811.38;5030655;28;20399;-74
2022/06/22 07:33:14;;;;;;;2.97;1.77;;;;;;;23.16;50.49;99814.25;5028056;28;20507;-73
2022/06/22 07:35:49;;;;;;;3.70;1.90;;;;;;;23.15;50.82;99804.38;5024479;28;20972;-73
2022/06/22 07:38:43;;;;;;;3.83;1.70;;;;;;;23.12;50.68;99805.84;5031628;28;20893;-73
2022/06/22 07:41:22;;;;;;;2.70;1.90;;;;;;;23.15;50.61;99805.16;5031167;28;20422;-73
2022/06/22 07:44:04;;;;;;;3.08;2.08;;;;;;;23.17;50.84;99808.41;5031419;28;20910;-73
2022/06/22 07:47:05;;;;;;;4.28;1.88;;;;;;;23.12;50.88;99819.66;5013650;28;20418;-73
2022/06/22 07:49:38;;;;;;;5.60;1.87;;;;;;;23.10;50.91;99819.22;5029333;28;20778;-73
2022/06/22 07:52:07;;;;;;;2.25;1.75;;;;;;;23.16;50.47;99817.84;5030963;28;20402;-73
2022/06/22 07:54:40;;;;;;;1.75;1.50;;;;;;;23.25;49.96;99821.28;5030812;28;20407;-72
2022/06/22 07:57:31;;;;;;;1.50;1.40;;;;;;;23.28;49.82;99839.19;5029461;28;20422;-73
2022/06/22 08:00:01;;;;;;;4.22;1.70;;;;;;;23.37;49.01;99858.41;5031165;28;20405;-72
2022/06/22 08:02:39;;;;;;;3.83;1.85;;;;;;;23.44;49.01;99870.56;5030099;28;20407;-72
2022/06/22 08:05:12;;;;;;;2.83;1.90;;;;;;;23.42;49.19;99861.78;5028655;28;20960;-73
2022/06/22 08:07:45;;;;;;;14.98;2.72;;;;;;;23.45;48.57;99843.69;5029259;28;20549;-72
2022/06/22 08:10:19;;;;;;;9.40;2.05;;;;;;;23.52;48.13;99832.84;5029426;28;20403;-72
2022/06/22 08:13:07;;;;;;;8.70;1.90;;;;;;;23.58;47.71;99829.50;5026524;28;20507;-72
2022/06/22 08:15:42;;;;;;;13.35;2.30;;;;;;;23.58;47.66;99832.28;5027131;28;20411;-73
2022/06/22 08:18:09;;;;;;;13.27;3.00;;;;;;;23.61;47.66;99842.66;5030211;28;20411;-73
2022/06/22 08:20:38;;;;;;;21.40;3.07;;;;;;;23.63;48.19;99843.13;5030732;28;20433;-73
2022/06/22 08:23:06;;;;;;;7.00;2.27;;;;;;;23.65;48.12;99846.34;5031634;28;20394;-73
2022/06/22 08:25:33;;;;;;;2.08;1.92;;;;;;;23.64;48.23;99853.06;5027849;28;20407;-73
2022/06/22 08:28:00;;;;;;;5.65;2.13;;;;;;;23.56;48.18;99856.72;5029323;28;20407;-73
2022/06/22 08:30:26;;;;;;;2.30;1.87;;;;;;;23.48;48.24;99854.88;5028961;28;20410;-73
2022/06/22 08:32:58;;;;;;;4.70;1.92;;;;;;;23.43;48.45;99859.81;5030741;28;20403;-73
2022/06/22 08:35:26;;;;;;;4.22;1.55;;;;;;;23.40;48.83;99863.25;5024063;28;20407;-73
2022/06/22 08:38:07;;;;;;;2.30;1.60;;;;;;;23.34;48.82;99848.84;5009006;28;20412;-73
2022/06/22 08:40:41;;;;;;;3.17;1.58;;;;;;;23.25;49.02;99848.13;5030527;28;20403;-73
2022/06/22 08:43:22;;;;;;;4.03;1.53;;;;;;;23.18;49.69;99858.97;5030911;28;20431;-73
2022/06/22 08:46:06;;;;;;;4.95;1.52;;;;;;;23.12;51.10;99874.13;5024719;28;20466;-73
2022/06/22 08:48:46;;;;;;;7.50;1.90;;;;;;;23.09;52.85;99872.06;5030721;28;20486;-73
2022/06/22 08:51:33;;;;;;;3.80;1.80;;;;;;;22.95;54.99;99875.16;5028986;28;20399;-73
2022/06/22 08:54:21;;;;;;;4.57;2.03;;;;;;;22.80;56.98;99867.50;5028470;28;20395;-73
2022/06/22 08:57:02;;;;;;;4.35;2.60;;;;;;;22.68;58.31;99854.47;5027388;28;20510;-73
2022/06/22 09:00:00;;;;;;;4.05;2.53;;;;;;;22.60;58.49;99852.53;5030727;28;20441;-73
2022/06/22 09:02:38;;;;;;;3.10;2.05;;;;;;;22.51;58.07;99860.09;5028919;28;20391;-73
2022/06/22 09:05:22;;;;;;;3.20;2.05;;;;;;;22.43;59.57;99854.66;5030338;28;20406;-73
2022/06/22 09:08:13;;;;;;;2.90;2.17;;;;;;;22.38;59.89;99844.63;5030331;28;20403;-73
2022/06/22 09:10:48;;;;;;;5.80;2.15;;;;;;;22.40;60.43;99856.13;5030675;28;20405;-72
2022/06/22 09:13:28;;;;;;;5.63;2.22;;;;;;;22.27;59.77;99857.22;5029529;28;20411;-73
2022/06/22 09:15:59;;;;;;;3.58;2.30;;;;;;;22.20;60.45;99857.75;5021296;28;20415;-73
2022/06/22 09:18:47;;;;;;;2.17;2.05;;;;;;;22.28;60.46;99866.31;5027758;28;20965;-73
2022/06/22 09:21:22;;;;;;;5.13;2.30;;;;;;;22.27;60.32;99872.97;5028482;28;20463;-73
2022/06/22 09:24:05;;;;;;;2.75;2.58;;;;;;;22.19;60.46;99869.97;5034294;28;20427;-73
2022/06/22 09:26:49;;;;;;;3.88;2.30;;;;;;;22.28;60.49;99866.31;5031667;28;20465;-73
2022/06/22 09:29:50;;;;;;;6.13;2.58;;;;;;;22.36;60.30;99873.72;5031237;28;20510;-73
2022/06/22 09:32:52;;;;;;;3.23;2.57;;;;;;;22.41;60.63;99882.59;5033191;28;20422;-73
2022/06/22 09:35:38;;;;;;;3.85;2.50;;;;;;;22.36;60.02;99885.56;5029673;28;20411;-73
2022/06/22 09:38:06;;;;;;;5.40;2.70;;;;;;;22.31;60.20;99880.25;5026751;28;20407;-73
2022/06/22 09:41:07;;;;;;;6.63;2.50;;;;;;;22.28;59.93;99872.66;5033855;28;20395;-73
2022/06/22 09:44:00;;;;;;;6.80;2.47;;;;;;;22.40;60.30;99877.41;4990676;28;20905;-73
2022/06/22 09:46:53;;;;;;;6.18;2.72;;;;;;;22.31;59.25;99876.69;5029373;28;20391;-73
2022/06/22 09:49:29;;;;;;;4.90;2.72;;;;;;;22.31;60.36;99873.91;5032470;28;20514;-73
2022/06/22 09:52:21;;;;;;;7.32;2.85;;;;;;;22.33;59.88;99880.72;5023046;28;20399;-72
2022/06/22 09:58:05;;;;;;;4.60;2.55;;;;;;;22.45;58.87;99886.31;5033768;28;20403;-73
2022/06/22 10:00:41;;;;;;;3.90;2.95;;;;;;;22.59;59.00;99886.03;5031563;28;20400;-73
2022/06/22 10:03:25;;;;;;;3.22;2.70;;;;;;;22.74;58.37;99885.44;5031977;28;20437;-73
2022/06/22 10:06:21;;;;;;;5.05;2.67;;;;;;;22.92;56.85;99886.09;5032404;28;20469;-72
2022/06/22 10:09:02;;;;;;;10.50;2.95;;;;;;;22.85;56.98;99889.41;5009443;28;20989;-73
2022/06/22 10:11:57;;;;;;;4.43;2.80;;;;;;;22.90;56.84;99896.66;5030619;28;20410;-72
2022/06/22 10:14:51;;;;;;;5.50;2.93;;;;;;;23.04;56.87;99891.63;5030956;28;20422;-72
2022/06/22 10:17:26;;;;;;;8.25;3.30;;;;;;;23.06;56.72;99887.38;5030107;28;20411;-72
2022/06/22 10:20:17;;;;;;;3.25;3.03;;;;;;;23.19;56.43;99891.78;5014602;28;20403;-72
2022/06/22 10:22:51;;;;;;;5.68;3.88;;;;;;;23.25;56.12;99897.88;5032192;28;20406;-73
2022/06/22 10:25:46;;;;;;;5.38;3.20;;;;;;;23.26;56.17;99899.50;5027582;28;20398;-72
2022/06/22 10:28:52;;;;;;;5.00;3.30;;;;;;;23.38;56.25;99885.69;5031284;28;20410;-72
2022/06/22 10:31:55;;;;;;;7.27;3.47;;;;;;;23.41;56.76;99895.31;5030284;28;20407;-72
2022/06/22 10:34:26;;;;;;;4.65;3.10;;;;;;;23.31;56.85;99898.50;5031552;28;20414;-73
2022/06/22 10:37:19;;;;;;;7.90;3.17;;;;;;;23.43;56.39;99884.72;5029113;28;20430;-72
2022/06/22 10:40:03;;;;;;;4.57;3.28;;;;;;;23.67;56.17;99885.56;5013635;28;20924;-73
2022/06/22 10:45:58;;;;;;;5.50;3.30;;;;;;;24.52;55.22;99882.66;5030701;28;20997;-72
2022/06/22 10:48:52;;;;;;;5.07;4.07;;;;;;;24.75;54.53;99880.16;5013979;28;20413;-72
2022/06/22 10:51:45;;;;;;;6.03;4.18;;;;;;;24.87;54.31;99879.31;5031613;28;20435;-72
2022/06/22 10:54:45;;;;;;;7.80;4.13;;;;;;;24.88;54.10;99878.97;5027002;28;20410;-72
2022/06/22 10:57:29;;;;;;;5.57;4.10;;;;;;;24.85;54.62;99879.66;5027503;28;20953;-72
2022/06/22 11:00:17;;;;;;;9.93;4.07;;;;;;;24.88;54.95;99889.25;5032199;28;20430;-72
2022/06/22 11:03:23;;;;;;;7.93;4.80;;;;;;;24.89;55.12;99897.22;5022510;28;20754;-72
2022/06/22 11:05:55;;;;;;;5.57;4.28;;;;;;;24.98;55.42;99899.81;5027335;28;20621;-72
2022/06/22 11:08:52;;;;;;;9.32;4.35;;;;;;;25.09;55.52;99903.69;5022809;28;20816;-73
2022/06/22 11:11:39;;;;;;;6.15;5.05;;;;;;;25.06;55.82;99899.66;5007070;28;20401;-73
2022/06/22 11:14:26;;;;;;;6.40;4.85;;;;;;;25.07;56.16;99903.22;5003112;28;20418;-73
2022/06/22 11:17:10;;;;;;;7.93;5.85;;;;;;;25.15;55.97;99911.41;5028813;28;20422;-74
2022/06/22 11:20:13;;;;;;;5.85;4.93;;;;;;;25.26;55.22;99912.47;5023601;28;21009;-72
2022/06/22 11:23:00;;;;;;;6.43;4.80;;;;;;;25.18;55.00;99907.91;5027778;28;20411;-72
2022/06/22 11:31:24;;;;;;;7.90;5.20;;;;;;;25.07;56.11;99917.09;5031247;28;20390;-72
2022/06/22 11:34:26;;;;;;;7.18;5.10;;;;;;;25.07;56.61;99911.53;5031224;28;20407;-73
2022/06/22 11:37:08;;;;;;;8.55;5.40;;;;;;;25.09;57.34;99923.88;5028805;28;20450;-72
2022/06/22 11:39:54;;;;;;;9.45;5.53;;;;;;;25.08;58.57;99922.28;5030343;28;20399;-72
2022/06/22 11:42:39;;;;;;;8.88;5.63;;;;;;;25.16;58.57;99915.75;5031435;28;20410;-72
2022/06/22 11:48:22;;;;;;;9.80;5.67;;;;;;;25.14;59.28;99920.06;5031094;28;20481;-73
2022/06/22 11:51:02;;;;;;;10.95;5.53;;;;;;;25.13;59.09;99916.47;5010734;28;20395;-73
2022/06/22 11:54:02;;;;;;;9.40;5.47;;;;;;;25.15;59.07;99914.19;5024086;28;20466;-73
2022/06/22 11:56:40;;;;;;;8.48;5.20;;;;;;;25.13;59.52;99915.66;5010981;28;20415;-73
2022/06/22 11:59:28;;;;;;;9.50;5.43;;;;;;;25.11;60.46;99909.69;5029920;28;20406;-73
2022/06/22 12:02:03;;;;;;;7.30;5.27;;;;;;;25.04;60.68;99910.28;5028551;28;20406;-73
2022/06/22 12:04:49;;;;;;;10.00;5.25;;;;;;;25.08;61.51;99911.19;5023947;28;20399;-73
2022/06/22 12:07:59;;;;;;;11.40;5.68;;;;;;;25.00;62.31;99903.84;5013161;28;20414;-73
2022/06/22 12:10:43;;;;;;;10.60;5.43;;;;;;;25.04;61.98;99899.22;5027013;28;20518;-73
2022/06/22 12:13:11;;;;;;;14.00;5.90;;;;;;;25.10;62.59;99900.56;5029619;28;20395;-73
2022/06/22 12:16:22;;;;;;;8.10;5.40;;;;;;;25.16;62.36;99893.59;5028845;28;20770;-73
2022/06/22 12:19:14;;;;;;;8.48;5.95;;;;;;;25.17;62.89;99895.19;4985013;28;20411;-73
2022/06/22 12:22:14;;;;;;;10.05;5.45;;;;;;;25.28;62.58;99885.22;5008443;28;20819;-73
2022/06/22 12:25:01;;;;;;;6.78;5.20;;;;;;;25.28;63.00;99876.88;5026406;28;20407;-73
2022/06/22 12:27:41;;;;;;;8.23;5.32;;;;;;;25.25;63.49;99871.25;5030267;28;20456;-73
2022/06/22 12:30:22;;;;;;;9.65;5.40;;;;;;;25.19;63.42;99872.69;5027057;28;20414;-73
2022/06/22 12:33:03;;;;;;;9.55;5.50;;;;;;;25.19;63.06;99867.13;5023757;28;20410;-73
2022/06/22 12:35:46;;;;;;;7.20;4.80;;;;;;;25.23;62.98;99868.00;5018668;28;20426;-73
2022/06/22 12:38:20;;;;;;;7.93;5.25;;;;;;;25.32;63.05;99868.66;5021412;28;20407;-73
2022/06/22 12:41:11;;;;;;;10.68;5.63;;;;;;;25.24;63.22;99877.94;5031696;28;20964;-73
2022/06/22 12:44:00;;;;;;;13.85;5.40;;;;;;;25.12;63.70;99875.25;5030170;28;20431;-73
2022/06/22 12:46:44;;;;;;;10.00;5.63;;;;;;;25.07;63.39;99869.97;5027685;28;20920;-74
2022/06/22 12:49:51;;;;;;;11.63;6.00;;;;;;;25.06;63.38;99868.38;5029509;28;20430;-73
2022/06/22 12:52:43;;;;;;;10.57;5.20;;;;;;;25.09;62.88;99864.88;5014409;28;20422;-73
2022/06/22 12:55:14;;;;;;;11.98;5.82;;;;;;;25.10;64.08;99867.28;4997892;28;20829;-73